createdAt,value
2023-05-12T00:00:34.218Z,100604.67
2023-05-12T00:01:37.156Z,100606.45
2023-05-12T00:02:40.572Z,100601.11
2023-05-12T00:03:44.510Z,100616.28
2023-05-12T00:04:47.582Z,100606.45
2023-05-12T00:05:50.259Z,100608.27
2023-05-12T00:06:53.093Z,100610.94
2023-05-12T00:07:56.636Z,100606.45
2023-05-12T00:09:01.147Z,100604.67
2023-05-12T00:10:05.133Z,100610.01
2023-05-12T00:11:07.675Z,100607.42
2023-05-12T00:12:11.728Z,100603.78
2023-05-12T00:13:15.221Z,100608.27
2023-05-12T00:14:18.998Z,100602.93
2023-05-12T00:15:21.998Z,100608.19
2023-05-12T00:16:24.803Z,100610.94
2023-05-12T00:17:28.397Z,100612.68
2023-05-12T00:18:33.608Z,100610.01
2023-05-12T00:19:36.410Z,100610.94
2023-05-12T00:20:40.203Z,100604.67
2023-05-12T00:21:42.769Z,100605.52
2023-05-12T00:22:45.590Z,100613.53
2023-05-12T00:23:49.393Z,100608.19
2023-05-12T00:24:52.139Z,100605.52
2023-05-12T00:25:56.373Z,100610.01
2023-05-12T00:26:59.632Z,100604.96
2023-05-12T00:28:03.098Z,100604.96
2023-05-12T00:29:05.793Z,100612.77
2023-05-12T00:30:10.053Z,100609.13
2023-05-12T00:31:12.780Z,100613.61
2023-05-12T00:32:15.665Z,100616.28
2023-05-12T00:33:18.405Z,100623.45
2023-05-12T00:34:22.014Z,100618.95
2023-05-12T00:35:24.848Z,100614.47
2023-05-12T00:36:27.729Z,100620.70
2023-05-12T00:37:30.967Z,100614.47
2023-05-12T00:38:34.509Z,100614.47
2023-05-12T00:39:37.587Z,100614.47
2023-05-12T00:40:41.653Z,100618.02
2023-05-12T00:41:44.184Z,100618.95
2023-05-12T00:42:47.543Z,100617.22
2023-05-12T00:43:50.375Z,100620.78
2023-05-12T00:44:54.075Z,100625.23
2023-05-12T00:45:59.006Z,100626.97
2023-05-12T00:47:02.980Z,100621.62
2023-05-12T00:48:06.165Z,100618.10
2023-05-12T00:49:10.434Z,100628.79
2023-05-12T00:50:13.425Z,100621.71
2023-05-12T00:51:16.465Z,100621.62
2023-05-12T00:52:19.439Z,100619.81
2023-05-12T00:53:22.150Z,100626.12
2023-05-12T00:54:28.257Z,100626.12
2023-05-12T00:55:31.262Z,100622.56
2023-05-12T00:56:36.666Z,100623.45
2023-05-12T00:57:41.069Z,100624.38
2023-05-12T00:58:44.820Z,100622.56
2023-05-12T00:59:47.840Z,100623.45
2023-05-12T01:00:50.973Z,100621.62
2023-05-12T01:01:54.329Z,100618.95
2023-05-12T01:02:57.988Z,100631.46
2023-05-12T01:04:02.006Z,100619.04
2023-05-12T01:05:05.982Z,100623.50
2023-05-12T01:06:22.831Z,100623.50
2023-05-12T01:07:25.908Z,100620.83
2023-05-12T01:08:30.680Z,100618.16
2023-05-12T01:09:33.924Z,100620.83
2023-05-12T01:10:39.958Z,100620.83
2023-05-12T01:11:44.221Z,100623.50
2023-05-12T01:12:48.005Z,100619.13
2023-05-12T01:13:51.006Z,100619.97
2023-05-12T01:14:56.279Z,100623.50
2023-05-12T01:16:00.301Z,100624.38
2023-05-12T01:17:05.298Z,100624.38
2023-05-12T01:18:08.933Z,100625.23
2023-05-12T01:20:29.028Z,100608.83
2023-05-12T01:21:32.573Z,100620.83
2023-05-12T01:22:35.435Z,100620.83
2023-05-12T01:23:41.769Z,100624.46
2023-05-12T01:24:48.220Z,100627.13
2023-05-12T01:25:51.284Z,100624.46
2023-05-12T01:26:55.647Z,100625.31
2023-05-12T01:27:59.014Z,100623.58
2023-05-12T01:29:03.515Z,100620.22
2023-05-12T01:30:08.019Z,100620.22
2023-05-12T01:31:12.189Z,100625.31
2023-05-12T01:32:15.114Z,100623.50
2023-05-12T01:33:17.913Z,100623.50
2023-05-12T01:34:21.907Z,100627.05
2023-05-12T01:35:26.527Z,100628.79
2023-05-12T01:36:31.818Z,100627.05
2023-05-12T01:37:36.557Z,100629.72
2023-05-12T01:38:40.648Z,100631.52
2023-05-12T01:39:43.895Z,100625.23
2023-05-12T01:40:49.478Z,100628.84
2023-05-12T01:41:54.403Z,100627.91
2023-05-12T01:42:59.161Z,100627.91
2023-05-12T01:44:03.990Z,100625.23
2023-05-12T01:45:08.585Z,100629.72
2023-05-12T01:46:11.725Z,100630.58
2023-05-12T01:47:15.825Z,100630.58
2023-05-12T01:48:20.410Z,100626.97
2023-05-12T01:49:23.494Z,100627.91
2023-05-12T01:50:27.446Z,100633.25
2023-05-12T01:51:31.084Z,100623.45
2023-05-12T01:52:34.367Z,100622.56
2023-05-12T01:53:38.621Z,100627.05
2023-05-12T01:54:41.493Z,100619.89
2023-05-12T01:55:44.515Z,100627.05
2023-05-12T01:56:48.903Z,100632.39
2023-05-12T01:57:52.278Z,100624.38
2023-05-12T01:58:56.081Z,100627.05
2023-05-12T02:00:00.451Z,100627.91
2023-05-12T02:01:04.377Z,100629.72
2023-05-12T02:02:07.212Z,100635.06
2023-05-12T02:03:10.645Z,100631.52
2023-05-12T02:04:14.678Z,100627.05
2023-05-12T02:05:19.666Z,100633.25
2023-05-12T02:06:25.442Z,100630.58
2023-05-12T02:07:28.364Z,100632.39
2023-05-12T02:08:31.598Z,100632.39
2023-05-12T02:09:35.565Z,100636.86
2023-05-12T02:10:38.412Z,100638.59
2023-05-12T02:11:42.256Z,100635.06
2023-05-12T02:12:44.923Z,100635.06
2023-05-12T02:13:47.892Z,100635.06
2023-05-12T02:14:50.781Z,100629.72
2023-05-12T02:15:53.924Z,100635.92
2023-05-12T02:16:57.000Z,100638.52
2023-05-12T02:18:00.399Z,100634.13
2023-05-12T02:19:03.577Z,100633.25
2023-05-12T02:20:12.352Z,100635.92
2023-05-12T02:21:15.614Z,100636.80
2023-05-12T02:22:18.784Z,100633.25
2023-05-12T02:23:21.483Z,100638.59
2023-05-12T02:24:24.519Z,100635.92
2023-05-12T02:25:27.865Z,100638.59
2023-05-12T02:26:31.337Z,100638.59
2023-05-12T02:27:35.891Z,100636.80
2023-05-12T02:28:39.181Z,100640.33
2023-05-12T02:29:43.753Z,100634.05
2023-05-12T02:30:48.276Z,100637.73
2023-05-12T02:31:51.233Z,100635.84
2023-05-12T02:32:55.950Z,100634.98
2023-05-12T02:33:59.137Z,100633.16
2023-05-12T02:35:02.357Z,100640.33
2023-05-12T02:36:06.273Z,100636.80
2023-05-12T02:37:10.014Z,100640.33
2023-05-12T02:38:13.698Z,100634.98
2023-05-12T02:39:17.554Z,100637.73
2023-05-12T02:40:20.628Z,100643.00
2023-05-12T02:41:23.546Z,100636.73
2023-05-12T02:42:28.325Z,100637.66
2023-05-12T02:43:31.126Z,100634.13
2023-05-12T02:44:33.941Z,100637.66
2023-05-12T02:45:37.484Z,100634.13
2023-05-12T02:46:40.482Z,100639.48
2023-05-12T02:47:43.663Z,100638.59
2023-05-12T02:48:47.802Z,100638.59
2023-05-12T02:49:50.897Z,100640.41
2023-05-12T02:50:53.963Z,100643.94
2023-05-12T02:51:56.964Z,100641.27
2023-05-12T02:53:01.114Z,100643.00
2023-05-12T02:54:05.519Z,100632.39
2023-05-12T02:55:09.183Z,100643.85
2023-05-12T02:56:12.487Z,100638.59
2023-05-12T02:57:17.300Z,100638.52
2023-05-12T02:58:20.955Z,100644.82
2023-05-12T02:59:23.872Z,100641.27
2023-05-12T03:01:38.679Z,100643.34
2023-05-12T03:02:41.526Z,100641.18
2023-05-12T03:03:44.871Z,100639.39
2023-05-12T03:04:47.877Z,100637.58
2023-05-12T03:05:52.079Z,100637.58
2023-05-12T03:08:25.945Z,100637.92
2023-05-12T03:09:28.586Z,100639.31
2023-05-12T03:10:31.379Z,100640.25
2023-05-12T03:11:34.431Z,100637.50
2023-05-12T03:12:37.385Z,100637.50
2023-05-12T03:13:41.199Z,100641.98
2023-05-12T03:14:44.143Z,100648.19
2023-05-12T03:15:47.553Z,100640.17
2023-05-12T03:16:50.482Z,100639.31
2023-05-12T03:17:53.699Z,100646.39
2023-05-12T03:18:56.612Z,100650.00
2023-05-12T03:19:59.322Z,100653.52
2023-05-12T03:21:02.998Z,100648.27
2023-05-12T03:22:06.841Z,100652.67
2023-05-12T03:23:10.187Z,100654.41
2023-05-12T03:24:14.481Z,100656.20
2023-05-12T03:25:17.563Z,100653.45
2023-05-12T03:26:21.804Z,100654.41
2023-05-12T03:27:26.193Z,100657.08
2023-05-12T03:28:29.198Z,100658.78
2023-05-12T03:29:32.994Z,100660.61
2023-05-12T03:30:36.303Z,100657.08
2023-05-12T03:31:39.311Z,100658.87
2023-05-12T03:33:56.783Z,100653.02
2023-05-12T03:35:00.608Z,100659.75
2023-05-12T03:36:04.401Z,100663.28
2023-05-12T03:37:08.106Z,100658.87
2023-05-12T03:38:10.808Z,100669.47
2023-05-12T03:39:14.579Z,100673.03
2023-05-12T03:40:18.081Z,100672.14
2023-05-12T03:41:21.522Z,100675.70
2023-05-12T03:42:27.122Z,100671.21
2023-05-12T03:43:31.194Z,100668.54
2023-05-12T03:44:34.070Z,100674.73
2023-05-12T03:45:37.147Z,100666.72
2023-05-12T03:46:40.643Z,100672.06
2023-05-12T03:47:45.097Z,100670.36
2023-05-12T03:48:48.096Z,100670.36
2023-05-12T03:49:51.210Z,100676.55
2023-05-12T03:50:53.897Z,100666.80
2023-05-12T03:51:57.501Z,100674.73
2023-05-12T03:53:01.114Z,100674.73
2023-05-12T03:54:04.399Z,100670.28
2023-05-12T03:55:08.521Z,100674.73
2023-05-12T03:56:12.314Z,100691.66
2023-05-12T03:57:15.477Z,100676.55
2023-05-12T03:58:18.844Z,100672.06
2023-05-12T03:59:22.436Z,100680.97
2023-05-12T04:00:25.324Z,100677.41
2023-05-12T04:01:28.519Z,100676.48
2023-05-12T04:02:31.554Z,100679.14
2023-05-12T04:03:34.217Z,100673.80
2023-05-12T04:04:37.392Z,100671.13
2023-05-12T04:05:41.967Z,100670.28
2023-05-12T04:06:44.627Z,100668.54
2023-05-12T04:07:47.851Z,100674.73
2023-05-12T04:08:51.095Z,100672.06
2023-05-12T04:09:55.104Z,100670.36
2023-05-12T04:11:01.611Z,100673.97
2023-05-12T04:12:05.358Z,100671.30
2023-05-12T04:13:08.556Z,100674.81
2023-05-12T04:14:11.600Z,100672.14
2023-05-12T04:15:14.398Z,100672.14
2023-05-12T04:16:17.221Z,100672.14
2023-05-12T04:17:20.639Z,100678.38
2023-05-12T04:18:27.588Z,100675.70
2023-05-12T04:19:32.733Z,100678.38
2023-05-12T04:20:36.666Z,100673.97
2023-05-12T04:21:41.879Z,100668.63
2023-05-12T04:23:57.614Z,100675.25
2023-05-12T04:25:03.525Z,100680.24
2023-05-12T04:26:06.511Z,100669.55
2023-05-12T04:27:10.050Z,100677.56
2023-05-12T04:28:12.993Z,100673.11
2023-05-12T04:29:15.895Z,100674.90
2023-05-12T04:30:19.108Z,100667.77
2023-05-12T04:31:22.165Z,100672.14
2023-05-12T04:32:26.078Z,100673.11
2023-05-12T04:33:29.009Z,100664.21
2023-05-12T04:34:31.842Z,100673.11
2023-05-12T04:35:34.772Z,100673.11
2023-05-12T04:36:38.048Z,100669.55
2023-05-12T04:37:42.393Z,100669.55
2023-05-12T04:38:46.052Z,100676.72
2023-05-12T04:39:49.459Z,100676.72
2023-05-12T04:40:59.808Z,100676.72
2023-05-12T04:42:03.812Z,100676.72
2023-05-12T04:44:21.489Z,100678.94
2023-05-12T04:45:27.079Z,100675.83
2023-05-12T04:46:29.914Z,100678.50
2023-05-12T04:47:33.572Z,100677.65
2023-05-12T04:48:38.021Z,100677.65
2023-05-12T04:49:40.510Z,100685.66
2023-05-12T04:50:44.567Z,100688.42
2023-05-12T04:51:48.518Z,100684.81
2023-05-12T04:52:52.961Z,100690.16
2023-05-12T04:53:58.229Z,100680.41
2023-05-12T04:55:01.637Z,100689.27
2023-05-12T04:57:17.180Z,100684.36
2023-05-12T04:58:19.987Z,100687.48
2023-05-12T04:59:23.686Z,100684.81
2023-05-12T05:00:29.431Z,100684.81
2023-05-12T05:01:32.537Z,100688.34
2023-05-12T05:02:35.299Z,100683.92
2023-05-12T05:03:41.769Z,100690.16
2023-05-12T05:04:44.506Z,100685.75
2023-05-12T05:05:48.582Z,100684.81
2023-05-12T05:06:51.489Z,100689.19
2023-05-12T05:07:56.020Z,100684.81
2023-05-12T05:09:00.297Z,100683.84
2023-05-12T05:10:04.124Z,100687.48
2023-05-12T05:11:08.186Z,100684.81
2023-05-12T05:12:11.299Z,100685.66
2023-05-12T05:13:14.679Z,100689.19
2023-05-12T05:14:18.483Z,100690.16
2023-05-12T05:15:21.400Z,100688.34
2023-05-12T05:16:24.895Z,100685.66
2023-05-12T05:17:28.881Z,100685.66
2023-05-12T05:18:32.272Z,100691.86
2023-05-12T05:19:50.926Z,100691.01
2023-05-12T05:20:45.137Z,100691.86
2023-05-12T05:21:45.652Z,100690.08
2023-05-12T05:22:48.915Z,100692.75
2023-05-12T05:23:52.601Z,100691.86
2023-05-12T05:24:56.489Z,100686.52
2023-05-12T05:25:59.106Z,100694.53
2023-05-12T05:27:03.709Z,100697.20
2023-05-12T05:28:06.417Z,100693.68
2023-05-12T05:29:10.206Z,100699.83
2023-05-12T05:30:13.293Z,100691.86
2023-05-12T05:31:17.581Z,100698.09
2023-05-12T05:32:21.467Z,100693.68
2023-05-12T05:33:25.393Z,100700.77
2023-05-12T05:34:28.141Z,100700.77
2023-05-12T05:35:31.329Z,100705.22
2023-05-12T05:36:36.187Z,100700.97
2023-05-12T05:37:39.262Z,100700.97
2023-05-12T05:38:43.137Z,100708.78
2023-05-12T05:39:45.833Z,100706.10
2023-05-12T05:40:52.960Z,100708.78
2023-05-12T05:41:53.730Z,100706.10
2023-05-12T05:42:56.572Z,100710.52
2023-05-12T05:44:01.010Z,100706.10
2023-05-12T05:45:05.912Z,100706.95
2023-05-12T05:47:20.609Z,100706.46
2023-05-12T05:49:57.861Z,100705.66
2023-05-12T05:51:05.022Z,100709.70
2023-05-12T05:52:09.012Z,100707.03
2023-05-12T05:53:12.044Z,100706.19
2023-05-12T05:54:15.263Z,100710.56
2023-05-12T05:55:20.314Z,100707.03
2023-05-12T05:56:24.381Z,100708.78
2023-05-12T05:57:28.553Z,100708.78
2023-05-12T05:58:33.010Z,100708.78
2023-05-12T05:59:39.152Z,100712.30
2023-05-12T06:00:42.976Z,100713.23
2023-05-12T06:01:45.911Z,100712.30
2023-05-12T06:02:48.984Z,100710.56
2023-05-12T06:03:56.344Z,100710.56
2023-05-12T06:05:01.912Z,100717.72
2023-05-12T06:06:05.238Z,100715.05
2023-05-12T06:07:07.939Z,100708.86
2023-05-12T06:08:12.534Z,100715.91
2023-05-12T06:09:16.061Z,100715.05
2023-05-12T06:10:19.392Z,100714.20
2023-05-12T06:11:22.472Z,100716.88
2023-05-12T06:12:27.108Z,100717.72
2023-05-12T06:13:29.861Z,100717.80
2023-05-12T06:14:34.615Z,100710.64
2023-05-12T06:15:38.269Z,100706.27
2023-05-12T06:16:41.025Z,100707.97
2023-05-12T06:17:44.233Z,100706.19
2023-05-12T06:18:47.970Z,100709.79
2023-05-12T06:19:52.180Z,100710.64
2023-05-12T06:20:55.066Z,100713.31
2023-05-12T06:21:58.066Z,100706.19
2023-05-12T06:23:00.952Z,100709.79
2023-05-12T06:24:04.746Z,100712.38
2023-05-12T06:25:08.148Z,100710.64
2023-05-12T06:26:11.152Z,100712.46
2023-05-12T06:27:14.268Z,100707.97
2023-05-12T06:28:17.554Z,100710.64
2023-05-12T06:29:20.792Z,100715.13
2023-05-12T06:30:24.364Z,100715.98
2023-05-12T06:31:31.073Z,100713.31
2023-05-12T06:32:34.832Z,100714.28
2023-05-12T06:33:38.255Z,100709.79
2023-05-12T06:34:41.316Z,100717.80
2023-05-12T06:35:45.044Z,100718.66
2023-05-12T06:36:48.417Z,100717.80
2023-05-12T06:37:52.029Z,100726.67
2023-05-12T06:38:55.381Z,100714.20
2023-05-12T06:39:58.314Z,100717.72
2023-05-12T06:41:01.843Z,100716.88
2023-05-12T06:42:06.988Z,100716.88
2023-05-12T06:43:12.531Z,100716.88
2023-05-12T06:44:17.808Z,100716.88
2023-05-12T06:45:22.807Z,100712.46
2023-05-12T06:46:27.082Z,100717.72
2023-05-12T06:47:31.094Z,100718.66
2023-05-12T06:48:33.886Z,100716.88
2023-05-12T06:49:38.143Z,100709.06
2023-05-12T06:50:41.860Z,100709.06
2023-05-12T06:51:45.734Z,100714.20
2023-05-12T06:52:48.599Z,100714.20
2023-05-12T06:53:53.165Z,100722.22
2023-05-12T06:54:56.296Z,100718.66
2023-05-12T06:55:59.110Z,100711.53
2023-05-12T06:57:02.908Z,100710.64
2023-05-12T06:58:05.880Z,100715.13
2023-05-12T06:59:09.295Z,100717.80
2023-05-12T07:00:14.659Z,100716.06
2023-05-12T07:01:17.743Z,100708.05
2023-05-12T07:02:20.830Z,100711.61
2023-05-12T07:03:25.239Z,100708.94
2023-05-12T07:04:29.140Z,100717.88
2023-05-12T07:05:32.066Z,100716.95
2023-05-12T07:06:35.056Z,100712.46
2023-05-12T07:07:38.799Z,100714.28
2023-05-12T07:08:42.340Z,100715.98
2023-05-12T07:09:45.527Z,100713.39
2023-05-12T07:10:48.248Z,100705.37
2023-05-12T07:11:52.446Z,100713.39
2023-05-12T07:12:54.964Z,100722.30
2023-05-12T07:13:57.536Z,100720.47
2023-05-12T07:15:00.295Z,100720.47
2023-05-12T07:16:04.245Z,100714.28
2023-05-12T07:17:07.398Z,100724.08
2023-05-12T07:18:10.032Z,100713.39
2023-05-12T07:19:13.351Z,100713.39
2023-05-12T07:20:17.450Z,100710.72
2023-05-12T07:21:22.491Z,100712.54
2023-05-12T07:22:25.855Z,100709.87
2023-05-12T07:23:28.571Z,100712.54
2023-05-12T07:24:31.102Z,100716.06
2023-05-12T07:25:36.185Z,100713.39
2023-05-12T07:26:40.051Z,100717.88
2023-05-12T07:27:44.349Z,100714.33
2023-05-12T07:28:46.921Z,100718.73
2023-05-12T07:29:49.446Z,100717.88
2023-05-12T07:30:54.144Z,100720.55
2023-05-12T07:31:58.682Z,100722.30
2023-05-12T07:33:01.657Z,100717.88
2023-05-12T07:34:04.838Z,100717.88
2023-05-12T07:35:08.719Z,100726.75
2023-05-12T07:36:12.968Z,100724.08
2023-05-12T07:37:16.869Z,100724.08
2023-05-12T07:38:21.760Z,100717.88
2023-05-12T07:39:24.869Z,100724.16
2023-05-12T07:40:28.223Z,100715.29
2023-05-12T07:41:31.990Z,100714.41
2023-05-12T07:42:35.866Z,100712.62
2023-05-12T07:43:39.640Z,100707.35
2023-05-12T07:44:43.351Z,100713.55
2023-05-12T07:45:46.358Z,100713.62
2023-05-12T07:46:49.206Z,100711.04
2023-05-12T07:47:54.369Z,100718.09
2023-05-12T07:48:59.053Z,100720.76
2023-05-12T07:50:02.335Z,100726.10
2023-05-12T07:51:06.338Z,100715.49
2023-05-12T07:52:08.959Z,100720.84
2023-05-12T07:53:13.164Z,100712.83
2023-05-12T07:54:15.992Z,100714.64
2023-05-12T07:55:21.142Z,100711.11
2023-05-12T07:56:24.184Z,100714.72
2023-05-12T07:57:27.852Z,100714.72
2023-05-12T07:58:30.785Z,100716.45
2023-05-12T07:59:33.819Z,100714.72
2023-05-12T08:00:37.002Z,100715.58
2023-05-12T08:01:40.054Z,100708.52
2023-05-12T08:02:43.204Z,100711.23
2023-05-12T08:03:46.943Z,100714.80
2023-05-12T08:04:50.306Z,100714.80
2023-05-12T08:05:53.782Z,100711.23
2023-05-12T08:06:57.715Z,100721.92
2023-05-12T08:08:00.928Z,100712.13
2023-05-12T08:09:04.982Z,100710.39
2023-05-12T08:10:12.474Z,100713.06
2023-05-12T08:11:15.077Z,100712.13
2023-05-12T08:12:17.743Z,100712.13
2023-05-12T08:13:21.153Z,100705.90
2023-05-12T08:14:25.064Z,100712.98
2023-05-12T08:15:29.241Z,100704.11
2023-05-12T08:16:32.720Z,100704.97
2023-05-12T08:17:35.842Z,100705.90
2023-05-12T08:18:39.709Z,100705.90
2023-05-12T08:19:42.568Z,100706.78
2023-05-12T08:20:49.332Z,100704.11
2023-05-12T08:21:53.464Z,100703.23
2023-05-12T08:22:56.078Z,100699.70
2023-05-12T08:23:58.960Z,100705.05
2023-05-12T08:25:01.690Z,100701.52
2023-05-12T08:26:04.559Z,100702.45
2023-05-12T08:27:08.176Z,100706.05
2023-05-12T08:28:12.296Z,100698.98
2023-05-12T08:29:16.107Z,100703.39
2023-05-12T08:30:18.916Z,100706.98
2023-05-12T08:31:22.757Z,100697.27
2023-05-12T08:32:25.478Z,100702.61
2023-05-12T08:33:29.091Z,100699.94
2023-05-12T08:34:33.051Z,100695.53
2023-05-12T08:35:36.547Z,100694.59
2023-05-12T08:36:40.089Z,100692.00
2023-05-12T08:37:44.417Z,100697.27
2023-05-12T08:38:47.226Z,100698.13
2023-05-12T08:39:51.412Z,100698.13
2023-05-12T08:41:21.381Z,100698.13
2023-05-12T08:42:33.271Z,100696.38
2023-05-12T08:43:44.236Z,100690.11
2023-05-12T08:44:48.677Z,100694.68
2023-05-12T08:45:54.583Z,100696.46
2023-05-12T08:46:59.263Z,100698.28
2023-05-12T08:48:02.093Z,100696.46
2023-05-12T08:49:05.562Z,100692.05
2023-05-12T08:50:09.618Z,100695.69
2023-05-12T08:51:13.493Z,100684.13
2023-05-12T08:52:18.055Z,100693.95
2023-05-12T08:53:21.852Z,100691.28
2023-05-12T08:54:24.631Z,100691.28
2023-05-12T08:55:31.752Z,100696.62
2023-05-12T08:57:39.769Z,100687.75
2023-05-12T08:58:42.798Z,100696.62
2023-05-12T08:59:45.772Z,100694.80
2023-05-12T09:00:51.448Z,100688.61
2023-05-12T09:01:54.430Z,100693.95
2023-05-12T09:02:59.239Z,100689.54
2023-05-12T09:04:04.427Z,100687.75
2023-05-12T09:05:09.383Z,100688.69
2023-05-12T09:06:12.758Z,100686.87
2023-05-12T09:07:15.561Z,100688.69
2023-05-12T09:08:18.395Z,100687.75
2023-05-12T09:09:21.658Z,100686.87
2023-05-12T09:11:29.641Z,100682.41
2023-05-12T09:12:35.222Z,100690.42
2023-05-12T09:14:07.496Z,100685.94
2023-05-12T09:15:11.877Z,100684.20
2023-05-12T09:16:15.653Z,100683.34
2023-05-12T09:17:18.440Z,100690.42
2023-05-12T09:18:22.231Z,100686.02
2023-05-12T09:19:25.210Z,100685.16
2023-05-12T09:20:31.921Z,100685.16
2023-05-12T09:21:33.566Z,100672.66
2023-05-12T09:22:37.378Z,100669.14
2023-05-12T09:23:54.313Z,100678.00
2023-05-12T09:24:58.554Z,100683.34
2023-05-12T09:26:01.858Z,100676.27
2023-05-12T09:27:05.235Z,100675.41
2023-05-12T09:28:09.698Z,100672.74
2023-05-12T09:29:20.808Z,100672.74
2023-05-12T09:30:21.902Z,100673.59
2023-05-12T09:31:25.722Z,100665.58
2023-05-12T09:32:32.757Z,100678.08
2023-05-12T09:33:36.216Z,100668.25
2023-05-12T09:34:40.383Z,100667.32
2023-05-12T09:35:45.227Z,100670.84
2023-05-12T09:37:02.131Z,100658.38
2023-05-12T09:38:08.085Z,100664.57
2023-05-12T09:39:12.176Z,100662.75
2023-05-12T09:40:16.796Z,100665.42
2023-05-12T09:41:22.873Z,100665.42
2023-05-12T09:42:26.640Z,100660.08
2023-05-12T09:43:29.818Z,100668.09
2023-05-12T09:44:32.724Z,100621.03
2023-05-12T09:46:51.195Z,100665.78
2023-05-12T09:47:53.724Z,100663.72
2023-05-12T09:48:56.767Z,100663.72
2023-05-12T09:50:04.037Z,100655.70
2023-05-12T09:51:11.067Z,100656.56
2023-05-12T09:52:13.846Z,100645.80
2023-05-12T09:53:17.845Z,100651.99
2023-05-12T09:54:28.607Z,100653.73
2023-05-12T09:55:32.325Z,100651.06
2023-05-12T09:56:37.666Z,100656.32
2023-05-12T09:57:41.968Z,100654.62
2023-05-12T09:58:47.211Z,100656.32
2023-05-12T09:59:50.729Z,100661.66
2023-05-12T10:02:01.963Z,100654.53
2023-05-12T10:03:13.849Z,100642.89
2023-05-12T10:04:16.625Z,100641.95
2023-05-12T10:05:20.734Z,100656.19
2023-05-12T10:06:27.953Z,100654.37
2023-05-12T10:07:31.913Z,100646.36
2023-05-12T10:09:52.205Z,100642.20
2023-05-12T10:10:57.217Z,100640.86
2023-05-12T10:12:00.093Z,100640.02
2023-05-12T10:13:04.036Z,100637.34
2023-05-12T10:14:08.667Z,100637.26
2023-05-12T10:15:12.466Z,100634.59
2023-05-12T10:17:19.287Z,100633.66
2023-05-12T10:18:25.990Z,100628.23
2023-05-12T10:19:30.160Z,100634.50
2023-05-12T10:20:33.335Z,100621.16
2023-05-12T10:21:37.098Z,100636.25
2023-05-12T10:22:40.589Z,100628.23
2023-05-12T10:23:44.831Z,100634.34
2023-05-12T10:24:48.318Z,100631.59
2023-05-12T10:25:51.050Z,100631.59
2023-05-12T10:26:55.968Z,100628.07
2023-05-12T10:27:58.836Z,100629.00
2023-05-12T10:29:01.376Z,100629.89
2023-05-12T10:30:06.685Z,100624.59
2023-05-12T10:33:15.212Z,100628.23
2023-05-12T10:34:19.290Z,100626.49
2023-05-12T10:35:35.860Z,100617.63
2023-05-12T10:36:49.712Z,100621.23
2023-05-12T10:37:54.122Z,100616.74
2023-05-12T10:39:05.634Z,100618.56
2023-05-12T10:40:10.694Z,100615.03
2023-05-12T10:41:14.243Z,100623.09
2023-05-12T10:42:19.655Z,100621.31
2023-05-12T10:43:26.071Z,100618.64
2023-05-12T10:44:29.904Z,100607.08
2023-05-12T10:45:36.798Z,100615.08
2023-05-12T10:46:39.565Z,100618.72
2023-05-12T10:47:43.224Z,100618.64
2023-05-12T10:48:55.754Z,100620.42
2023-05-12T10:49:58.967Z,100616.91
2023-05-12T10:51:09.840Z,100617.76
2023-05-12T10:52:13.871Z,100615.08
2023-05-12T10:53:16.607Z,100619.49
2023-05-12T10:54:22.137Z,100613.30
2023-05-12T10:55:33.716Z,100610.63
2023-05-12T10:56:42.787Z,100612.37
2023-05-12T10:57:50.439Z,100614.95
2023-05-12T10:59:14.140Z,100619.41
2023-05-12T11:00:23.320Z,100606.94
2023-05-12T11:01:27.594Z,100602.45
2023-05-12T11:02:34.909Z,100598.93
2023-05-12T11:03:38.622Z,100603.30
2023-05-12T11:04:46.707Z,100610.47
2023-05-12T11:06:01.238Z,100612.28
2023-05-12T11:07:06.114Z,100605.12
2023-05-12T11:08:11.608Z,100604.19
2023-05-12T11:09:17.754Z,100606.94
2023-05-12T11:10:24.306Z,100599.78
2023-05-12T11:11:29.681Z,100604.19
2023-05-12T11:12:34.660Z,100614.88
2023-05-12T11:13:37.195Z,100601.59
2023-05-12T11:15:55.562Z,100604.58
2023-05-12T11:17:02.975Z,100612.12
2023-05-12T11:18:05.812Z,100613.78
2023-05-12T11:19:09.440Z,100602.13
2023-05-12T11:20:23.326Z,100598.52
2023-05-12T11:21:25.893Z,100606.53
2023-05-12T11:22:29.302Z,100604.67
2023-05-12T11:23:33.005Z,100603.70
2023-05-12T11:24:37.110Z,100603.70
2023-05-12T11:25:41.595Z,100593.98
2023-05-12T11:26:46.060Z,100591.31
2023-05-12T11:27:51.719Z,100590.34
2023-05-12T11:28:59.822Z,100593.02
2023-05-12T11:30:03.821Z,100587.67
2023-05-12T11:31:06.985Z,100587.67
2023-05-12T11:32:11.767Z,100590.34
2023-05-12T11:34:26.709Z,100586.47
2023-05-12T11:35:30.852Z,100589.57
2023-05-12T11:36:40.789Z,100586.90
2023-05-12T11:37:44.669Z,100586.05
2023-05-12T11:38:50.863Z,100585.16
2023-05-12T11:39:53.694Z,100587.75
2023-05-12T11:40:56.366Z,100587.75
2023-05-12T11:42:12.749Z,100586.90
2023-05-12T11:43:12.090Z,100584.23
2023-05-12T11:44:20.783Z,100581.56
2023-05-12T11:45:30.059Z,100584.23
2023-05-12T11:46:33.089Z,100583.38
2023-05-12T11:47:37.094Z,100585.16
2023-05-12T11:48:39.921Z,100586.05
2023-05-12T11:49:49.267Z,100581.56
2023-05-12T11:50:53.293Z,100578.88
2023-05-12T11:52:02.629Z,100583.30
2023-05-12T11:53:07.819Z,100583.30
2023-05-12T11:54:10.819Z,100586.82
2023-05-12T11:55:17.240Z,100587.75
2023-05-12T11:56:21.703Z,100578.80
2023-05-12T11:57:32.317Z,100584.95
2023-05-12T11:58:35.876Z,100591.14
2023-05-12T11:59:40.247Z,100588.30
2023-05-12T12:00:43.887Z,100590.98
2023-05-12T12:01:46.844Z,100581.14
2023-05-12T12:02:49.690Z,100585.59
2023-05-12T12:03:53.545Z,100589.05
2023-05-12T12:04:56.934Z,100584.48
2023-05-12T12:06:00.863Z,100584.40
2023-05-12T12:07:05.287Z,100583.47
2023-05-12T12:08:10.156Z,100585.20
2023-05-12T12:10:25.413Z,100584.56
2023-05-12T12:11:29.992Z,100581.42
2023-05-12T12:12:32.843Z,100586.77
2023-05-12T12:13:35.361Z,100586.69
2023-05-12T12:15:52.166Z,100578.88
2023-05-12T12:18:07.952Z,100577.00
2023-05-12T12:19:12.366Z,100582.83
2023-05-12T12:20:18.279Z,100577.48
2023-05-12T12:22:33.710Z,100575.90
2023-05-12T12:23:50.031Z,100573.70
2023-05-12T12:24:40.857Z,100572.77
2023-05-12T12:25:43.761Z,100573.62
2023-05-12T12:28:00.270Z,100572.08
2023-05-12T12:29:03.681Z,100569.03
2023-05-12T12:30:07.907Z,100572.59
2023-05-12T12:31:11.360Z,100567.25
2023-05-12T12:32:14.303Z,100565.42
2023-05-12T12:33:18.862Z,100568.98
2023-05-12T12:34:22.043Z,100564.49
2023-05-12T12:35:25.104Z,100568.98
2023-05-12T12:36:28.690Z,100563.55
2023-05-12T12:37:32.595Z,100560.88
2023-05-12T12:38:35.367Z,100563.55
2023-05-12T12:39:37.963Z,100551.84
2023-05-12T12:40:42.039Z,100560.80
2023-05-12T12:41:46.555Z,100559.86